Terminal Aerodrome Forecast
Issued by NWS

Home | Current Version | Previous Version | Text Only | Print | Product List | Glossary On
Versions: 1 2 3 4 5 6 7 8 9 10 11 12 13 14 15
000
FTUS45 KRIW 101122
TAFCPR
TAF
KCPR 101122Z 1012/1112 23012G22KT P6SM SCT100 BKN200
     FM101600 22025G35KT P6SM BKN100
     FM110700 35008KT P6SM VCSH BKN050
     FM110900 35007KT P6SM VCSH BKN028=

USA.gov is the U.S. government's official web portal to all federal, state and local government web resources and services.